createdAt,value
2023-01-11T00:00:11.911Z,0.50
2023-01-11T00:01:08.761Z,0.82
2023-01-11T00:02:05.598Z,0.60
2023-01-11T00:03:03.334Z,0.70
2023-01-11T00:04:00.026Z,0.60
2023-01-11T00:04:56.792Z,0.50
2023-01-11T00:05:55.811Z,0.60
2023-01-11T00:06:52.516Z,0.73
2023-01-11T00:07:52.202Z,0.70
2023-01-11T00:08:48.959Z,0.50
2023-01-11T00:09:47.837Z,0.75
2023-01-11T00:10:44.495Z,0.50
2023-01-11T00:11:41.176Z,0.73
2023-01-11T00:12:37.892Z,0.70
2023-01-11T00:13:34.545Z,0.65
2023-01-11T00:14:31.357Z,0.80
2023-01-11T00:15:28.150Z,0.60
2023-01-11T00:16:25.006Z,0.63
2023-01-11T00:17:21.773Z,0.60
2023-01-11T00:18:18.554Z,0.52
2023-01-11T00:19:15.158Z,0.63
2023-01-11T00:20:11.970Z,0.70
2023-01-11T00:21:08.913Z,0.70
2023-01-11T00:22:05.642Z,0.73
2023-01-11T00:23:02.377Z,0.77
2023-01-11T00:23:59.005Z,0.55
2023-01-11T00:24:55.843Z,0.70
2023-01-11T00:25:52.598Z,0.60
2023-01-11T00:26:49.419Z,0.60
2023-01-11T00:27:47.467Z,0.60
2023-01-11T00:28:44.162Z,0.60
2023-01-11T00:29:40.886Z,0.80
2023-01-11T00:30:37.926Z,0.50
2023-01-11T00:31:34.671Z,0.60
2023-01-11T00:32:31.416Z,0.57
2023-01-11T00:33:28.150Z,0.70
2023-01-11T00:34:25.085Z,0.65
2023-01-11T00:35:21.800Z,0.70
2023-01-11T00:36:18.553Z,0.60
2023-01-11T00:37:15.338Z,0.60
2023-01-11T00:38:32.040Z,0.63
2023-01-11T00:39:28.782Z,0.70
2023-01-11T00:40:26.585Z,0.77
2023-01-11T00:41:42.434Z,0.67
2023-01-11T00:42:59.474Z,0.50
2023-01-11T00:44:14.822Z,0.90
2023-01-11T00:45:29.871Z,0.60
2023-01-11T00:46:45.156Z,0.57
2023-01-11T00:48:00.283Z,0.77
2023-01-11T00:48:56.926Z,0.70
2023-01-11T00:49:53.642Z,0.60
2023-01-11T00:50:51.892Z,0.50
2023-01-11T00:51:48.680Z,0.60
2023-01-11T00:52:45.295Z,0.60
2023-01-11T00:53:48.554Z,0.60
2023-01-11T00:54:45.301Z,0.75
2023-01-11T00:55:42.756Z,0.70
2023-01-11T00:56:39.492Z,0.52
2023-01-11T00:57:36.416Z,0.65
2023-01-11T00:58:36.044Z,0.63
2023-01-11T00:59:33.678Z,0.50
2023-01-11T01:00:30.488Z,0.50
2023-01-11T01:01:27.293Z,0.50
2023-01-11T01:02:24.090Z,0.90
2023-01-11T01:03:21.040Z,0.70
2023-01-11T01:04:17.725Z,0.70
2023-01-11T01:05:14.559Z,0.65
2023-01-11T01:06:11.401Z,0.60
2023-01-11T01:07:08.130Z,0.60
2023-01-11T01:08:04.973Z,0.77
2023-01-11T01:09:01.603Z,0.60
2023-01-11T01:09:58.316Z,0.52
2023-01-11T01:10:54.949Z,0.50
2023-01-11T01:11:51.731Z,0.63
2023-01-11T01:13:06.985Z,0.50
2023-01-11T01:14:22.300Z,0.60
2023-01-11T01:15:19.469Z,0.40
2023-01-11T01:16:16.190Z,0.73
2023-01-11T01:17:12.998Z,0.50
2023-01-11T01:18:09.671Z,0.50
2023-01-11T01:19:07.286Z,0.57
2023-01-11T01:20:04.408Z,0.50
2023-01-11T01:21:01.092Z,0.70
2023-01-11T01:21:58.571Z,0.50
2023-01-11T01:22:55.307Z,0.50
2023-01-11T01:23:52.789Z,0.50
2023-01-11T01:24:49.616Z,0.65
2023-01-11T01:25:46.234Z,0.70
2023-01-11T01:26:42.899Z,0.60
2023-01-11T01:27:39.559Z,0.60
2023-01-11T01:28:36.337Z,0.53
2023-01-11T01:29:33.065Z,0.50
2023-01-11T01:30:29.854Z,0.70
2023-01-11T01:31:26.746Z,0.60
2023-01-11T01:32:23.467Z,0.60
2023-01-11T01:33:20.153Z,0.60
2023-01-11T01:34:17.154Z,0.70
2023-01-11T01:35:13.978Z,0.70
2023-01-11T01:36:10.756Z,0.70
2023-01-11T01:37:07.682Z,0.60
2023-01-11T01:38:04.368Z,0.85
2023-01-11T01:39:02.300Z,0.40
2023-01-11T01:39:59.035Z,0.47
2023-01-11T01:40:56.947Z,0.60
2023-01-11T01:41:53.608Z,0.50
2023-01-11T01:42:54.375Z,0.60
2023-01-11T01:43:58.601Z,0.50
2023-01-11T01:44:59.095Z,0.50
2023-01-11T01:45:56.529Z,0.40
2023-01-11T01:46:53.248Z,0.47
2023-01-11T01:48:00.589Z,0.40
2023-01-11T01:48:58.535Z,0.60
2023-01-11T01:49:55.180Z,0.80
2023-01-11T01:50:56.699Z,0.50
2023-01-11T01:51:56.844Z,0.50
2023-01-11T01:52:55.683Z,0.37
2023-01-11T01:53:53.509Z,0.40
2023-01-11T01:54:50.297Z,0.60
2023-01-11T01:55:50.387Z,0.40
2023-01-11T01:56:52.307Z,0.50
2023-01-11T01:57:51.488Z,0.50
2023-01-11T01:58:51.095Z,0.57
2023-01-11T01:59:51.608Z,0.60
2023-01-11T02:00:48.328Z,0.70
2023-01-11T02:01:48.089Z,0.50
2023-01-11T02:02:44.951Z,0.40
2023-01-11T02:03:41.753Z,0.30
2023-01-11T02:04:42.494Z,0.50
2023-01-11T02:05:39.121Z,0.50
2023-01-11T02:06:36.037Z,0.50
2023-01-11T02:07:34.455Z,0.47
2023-01-11T02:08:34.704Z,0.33
2023-01-11T02:09:51.306Z,0.40
2023-01-11T02:10:48.256Z,0.47
2023-01-11T02:11:45.178Z,0.50
2023-01-11T02:12:47.584Z,0.50
2023-01-11T02:13:46.170Z,0.37
2023-01-11T02:14:43.350Z,0.40
2023-01-11T02:15:40.187Z,0.60
2023-01-11T02:16:36.853Z,0.40
2023-01-11T02:17:33.674Z,0.40
2023-01-11T02:18:30.319Z,0.50
2023-01-11T02:19:39.812Z,0.50
2023-01-11T02:21:05.454Z,0.40
2023-01-11T02:22:15.043Z,0.50
2023-01-11T02:23:39.891Z,0.37
2023-01-11T02:25:07.631Z,0.50
2023-01-11T02:26:31.793Z,0.50
2023-01-11T02:27:28.295Z,0.20
2023-01-11T02:28:30.354Z,0.60
2023-01-11T02:29:42.248Z,0.50
2023-01-11T02:30:39.488Z,0.40
2023-01-11T02:31:44.284Z,0.30
2023-01-11T02:32:55.723Z,0.30
2023-01-11T02:34:15.272Z,0.40
2023-01-11T02:35:27.984Z,0.40
2023-01-11T02:36:48.488Z,0.40
2023-01-11T02:38:07.781Z,0.45
2023-01-11T02:39:30.946Z,0.38
2023-01-11T02:41:01.304Z,0.70
2023-01-11T02:42:19.437Z,0.40
2023-01-11T02:43:38.807Z,0.50
2023-01-11T02:44:56.485Z,0.50
2023-01-11T02:46:00.770Z,0.40
2023-01-11T02:47:03.542Z,0.40
2023-01-11T02:48:02.440Z,0.20
2023-01-11T02:49:24.342Z,0.43
2023-01-11T02:50:29.850Z,0.30
2023-01-11T02:51:40.533Z,0.50
2023-01-11T02:52:43.379Z,0.40
2023-01-11T02:53:43.787Z,0.30
2023-01-11T02:54:42.070Z,0.47
2023-01-11T02:55:41.026Z,0.30
2023-01-11T02:56:40.572Z,0.40
2023-01-11T02:57:39.245Z,0.30
2023-01-11T02:58:37.545Z,0.40
2023-01-11T02:59:35.156Z,0.40
2023-01-11T03:00:31.806Z,0.30
2023-01-11T03:01:28.470Z,0.63
2023-01-11T03:02:25.328Z,0.30
2023-01-11T03:03:24.661Z,0.30
2023-01-11T03:04:28.479Z,0.30
2023-01-11T03:05:25.116Z,0.50
2023-01-11T03:06:30.977Z,0.40
2023-01-11T03:07:27.674Z,0.40
2023-01-11T03:08:45.817Z,0.40
2023-01-11T03:10:00.911Z,0.30
2023-01-11T03:11:54.579Z,0.30
2023-01-11T03:13:05.524Z,0.30
2023-01-11T03:14:07.433Z,0.30
2023-01-11T03:15:24.054Z,0.40
2023-01-11T03:16:27.617Z,0.40
2023-01-11T03:17:55.625Z,0.60
2023-01-11T03:19:01.009Z,0.40
2023-01-11T03:20:20.358Z,0.47
2023-01-11T03:21:27.636Z,0.40
2023-01-11T03:22:50.702Z,0.30
2023-01-11T03:24:08.842Z,0.50
2023-01-11T03:25:29.147Z,0.57
2023-01-11T03:27:00.552Z,0.40
2023-01-11T03:28:19.439Z,0.30
2023-01-11T03:29:22.916Z,0.40
2023-01-11T03:30:28.604Z,0.50
2023-01-11T03:31:32.597Z,0.57
2023-01-11T03:32:46.822Z,0.30
2023-01-11T03:33:56.257Z,0.60
2023-01-11T03:35:19.684Z,0.47
2023-01-11T03:36:37.095Z,0.50
2023-01-11T03:37:50.936Z,0.40
2023-01-11T03:39:00.743Z,0.50
2023-01-11T03:40:06.205Z,0.40
2023-01-11T03:41:07.883Z,0.30
2023-01-11T03:42:06.041Z,0.47
2023-01-11T03:43:13.650Z,0.50
2023-01-11T03:44:11.030Z,0.50
2023-01-11T03:45:08.126Z,0.40
2023-01-11T03:46:04.737Z,0.50
2023-01-11T03:47:04.597Z,0.40
2023-01-11T03:48:01.539Z,0.50
2023-01-11T03:49:04.861Z,0.50
2023-01-11T03:50:11.025Z,0.50
2023-01-11T03:51:09.800Z,0.43
2023-01-11T03:52:07.675Z,0.40
2023-01-11T03:53:05.620Z,0.80
2023-01-11T03:54:04.824Z,0.67
2023-01-11T03:55:02.429Z,0.53
2023-01-11T03:55:59.275Z,0.40
2023-01-11T03:57:10.589Z,0.80
2023-01-11T03:58:09.162Z,0.70
2023-01-11T03:59:06.136Z,0.50
2023-01-11T04:00:02.907Z,0.80
2023-01-11T04:00:59.839Z,0.53
2023-01-11T04:01:56.542Z,0.57
2023-01-11T04:02:56.037Z,0.60
2023-01-11T04:03:52.734Z,0.57
2023-01-11T04:04:49.443Z,0.60
2023-01-11T04:05:46.886Z,0.30
2023-01-11T04:06:43.618Z,0.50
2023-01-11T04:07:40.269Z,0.50
2023-01-11T04:08:36.999Z,0.60
2023-01-11T04:09:33.563Z,0.37
2023-01-11T04:10:30.204Z,0.50
2023-01-11T04:11:29.410Z,0.50
2023-01-11T04:12:26.139Z,0.50
2023-01-11T04:13:26.013Z,0.57
2023-01-11T04:14:22.735Z,0.57
2023-01-11T04:15:19.411Z,0.50
2023-01-11T04:16:16.151Z,0.60
2023-01-11T04:17:12.932Z,0.50
2023-01-11T04:18:10.036Z,0.40
2023-01-11T04:19:06.813Z,0.50
2023-01-11T04:20:03.511Z,0.35
2023-01-11T04:21:00.106Z,0.50
2023-01-11T04:21:56.758Z,0.40
2023-01-11T04:22:53.353Z,0.53
2023-01-11T04:23:50.171Z,0.50
2023-01-11T04:24:46.936Z,0.50
2023-01-11T04:25:43.560Z,0.40
2023-01-11T04:26:40.457Z,0.30
2023-01-11T04:27:37.143Z,0.40
2023-01-11T04:28:34.337Z,0.47
2023-01-11T04:29:31.039Z,0.30
2023-01-11T04:30:27.784Z,0.40
2023-01-11T04:31:24.464Z,0.40
2023-01-11T04:32:21.073Z,0.43
2023-01-11T04:33:19.484Z,0.30
2023-01-11T04:34:16.136Z,0.40
2023-01-11T04:35:12.830Z,0.30
2023-01-11T04:36:10.416Z,0.43
2023-01-11T04:37:07.105Z,0.40
2023-01-11T04:38:03.748Z,0.40
2023-01-11T04:39:00.623Z,0.40
2023-01-11T04:39:57.317Z,0.32
2023-01-11T04:41:13.967Z,0.50
2023-01-11T04:42:21.325Z,0.43
2023-01-11T04:43:18.370Z,0.32
2023-01-11T04:44:15.068Z,0.22
2023-01-11T04:45:11.855Z,0.63
2023-01-11T04:46:10.909Z,0.43
2023-01-11T04:47:07.673Z,0.40
2023-01-11T04:48:04.554Z,0.43
2023-01-11T04:49:01.167Z,0.40
2023-01-11T04:49:57.920Z,0.30
2023-01-11T04:50:54.573Z,0.40
2023-01-11T04:51:51.226Z,0.40
2023-01-11T04:52:47.950Z,0.30
2023-01-11T04:53:47.040Z,0.60
2023-01-11T04:54:43.716Z,0.40
2023-01-11T04:55:40.384Z,0.50
2023-01-11T04:56:37.017Z,0.50
2023-01-11T04:57:33.679Z,0.40
2023-01-11T04:58:30.479Z,0.40
2023-01-11T04:59:27.412Z,0.60
2023-01-11T05:00:24.147Z,0.40
2023-01-11T05:01:20.919Z,0.38
2023-01-11T05:02:17.707Z,0.40
2023-01-11T05:03:14.383Z,0.30
2023-01-11T05:04:13.414Z,0.40
2023-01-11T05:05:10.351Z,0.40
2023-01-11T05:06:07.521Z,0.50
2023-01-11T05:07:04.148Z,0.50
2023-01-11T05:08:00.801Z,0.68
2023-01-11T05:09:02.743Z,0.50
2023-01-11T05:09:59.461Z,0.40
2023-01-11T05:10:57.099Z,0.70
2023-01-11T05:11:53.829Z,0.30
2023-01-11T05:12:51.331Z,0.60
2023-01-11T05:13:48.091Z,0.70
2023-01-11T05:14:44.841Z,0.60
2023-01-11T05:15:41.488Z,0.60
2023-01-11T05:16:38.327Z,0.60
2023-01-11T05:17:34.993Z,0.68
2023-01-11T05:18:31.753Z,0.65
2023-01-11T05:19:28.460Z,0.70
2023-01-11T05:20:25.142Z,0.40
2023-01-11T05:21:23.608Z,0.50
2023-01-11T05:22:20.274Z,0.63
2023-01-11T05:23:16.925Z,0.60
2023-01-11T05:24:16.344Z,0.80
2023-01-11T05:25:12.933Z,0.52
2023-01-11T05:26:30.591Z,0.43
2023-01-11T05:27:27.199Z,0.60
2023-01-11T05:28:23.920Z,0.50
2023-01-11T05:29:21.232Z,0.55
2023-01-11T05:30:18.000Z,0.60
2023-01-11T05:31:14.844Z,0.60
2023-01-11T05:32:12.476Z,0.70
2023-01-11T05:33:09.118Z,0.63
2023-01-11T05:34:07.030Z,0.55
2023-01-11T05:35:03.767Z,0.57
2023-01-11T05:36:01.011Z,0.68
2023-01-11T05:36:57.769Z,0.90
2023-01-11T05:37:54.344Z,0.60
2023-01-11T05:38:52.181Z,0.55
2023-01-11T05:39:48.904Z,0.50
2023-01-11T05:40:47.353Z,0.47
2023-01-11T05:41:43.998Z,0.53
2023-01-11T05:42:40.639Z,0.50
2023-01-11T05:43:56.089Z,0.63
2023-01-11T05:45:11.466Z,0.40
2023-01-11T05:46:08.192Z,0.47
2023-01-11T05:47:05.011Z,0.85
2023-01-11T05:48:01.747Z,0.60
2023-01-11T05:49:01.095Z,0.70
2023-01-11T05:49:57.936Z,0.60
2023-01-11T05:50:55.148Z,0.60
2023-01-11T05:51:51.849Z,0.60
2023-01-11T05:52:48.508Z,0.52
2023-01-11T05:53:45.201Z,0.40
2023-01-11T05:54:41.850Z,0.57
2023-01-11T05:55:38.571Z,0.60
2023-01-11T05:56:35.239Z,0.55
2023-01-11T05:57:31.929Z,0.63
2023-01-11T05:58:28.519Z,0.70
2023-01-11T05:59:26.763Z,0.50
2023-01-11T06:00:23.993Z,0.43
2023-01-11T06:01:21.272Z,0.60
2023-01-11T06:02:18.089Z,0.60
2023-01-11T06:03:14.887Z,0.57
2023-01-11T06:04:11.620Z,0.65
2023-01-11T06:05:08.808Z,0.80
2023-01-11T06:06:05.568Z,0.80
2023-01-11T06:07:02.451Z,0.90
2023-01-11T06:07:59.169Z,1.00
2023-01-11T06:08:55.804Z,1.30
2023-01-11T06:09:52.497Z,0.90
2023-01-11T06:10:55.647Z,0.80
2023-01-11T06:11:52.379Z,0.80
2023-01-11T06:12:52.076Z,0.70
2023-01-11T06:13:48.792Z,0.70
2023-01-11T06:14:45.455Z,0.70
2023-01-11T06:15:42.146Z,0.50
2023-01-11T06:16:39.126Z,0.60
2023-01-11T06:17:35.862Z,0.70
2023-01-11T06:18:39.925Z,0.60
2023-01-11T06:19:38.722Z,0.80
2023-01-11T06:20:35.419Z,0.70
2023-01-11T06:21:32.168Z,0.70
2023-01-11T06:22:28.975Z,0.80
2023-01-11T06:23:25.785Z,0.90
2023-01-11T06:24:22.576Z,1.10
2023-01-11T06:25:19.198Z,0.60
2023-01-11T06:26:17.079Z,0.75
2023-01-11T06:27:16.857Z,0.60
2023-01-11T06:28:13.527Z,0.70
2023-01-11T06:29:11.616Z,0.70
2023-01-11T06:30:08.872Z,0.80
2023-01-11T06:31:05.902Z,0.75
2023-01-11T06:32:02.565Z,0.90
2023-01-11T06:33:05.919Z,0.80
2023-01-11T06:34:02.652Z,0.90
2023-01-11T06:34:59.354Z,0.85
2023-01-11T06:35:56.419Z,0.70
2023-01-11T06:36:53.249Z,0.77
2023-01-11T06:37:49.992Z,0.70
2023-01-11T06:38:46.768Z,0.60
2023-01-11T06:39:43.477Z,0.70
2023-01-11T06:40:40.524Z,0.73
2023-01-11T06:41:37.411Z,0.70
2023-01-11T06:42:34.184Z,0.70
2023-01-11T06:43:31.395Z,0.83
2023-01-11T06:44:28.632Z,0.73
2023-01-11T06:45:25.284Z,0.70
2023-01-11T06:46:22.143Z,0.90
2023-01-11T06:47:19.012Z,0.80
2023-01-11T06:48:16.949Z,0.75
2023-01-11T06:49:13.640Z,0.63
2023-01-11T06:50:10.806Z,0.60
2023-01-11T06:51:07.546Z,0.77
2023-01-11T06:52:04.308Z,0.75
2023-01-11T06:53:03.624Z,0.70
2023-01-11T06:54:00.367Z,0.75
2023-01-11T06:54:57.013Z,0.80
2023-01-11T06:55:57.266Z,0.70
2023-01-11T06:56:53.983Z,0.70
2023-01-11T06:57:50.655Z,0.68
2023-01-11T06:58:47.806Z,0.60
2023-01-11T06:59:45.140Z,0.80
2023-01-11T07:00:41.818Z,0.70
2023-01-11T07:01:38.571Z,0.80
2023-01-11T07:02:35.429Z,0.68
2023-01-11T07:03:32.229Z,1.13
2023-01-11T07:04:28.900Z,1.20
2023-01-11T07:05:25.796Z,1.08
2023-01-11T07:06:22.528Z,1.17
2023-01-11T07:07:21.241Z,1.00
2023-01-11T07:08:18.065Z,0.90
2023-01-11T07:09:14.678Z,1.10
2023-01-11T07:10:13.409Z,1.30
2023-01-11T07:11:10.058Z,1.33
2023-01-11T07:12:06.791Z,1.40
2023-01-11T07:13:03.471Z,1.50
2023-01-11T07:14:00.244Z,3.90
2023-01-11T07:14:56.989Z,1.95
2023-01-11T07:15:56.933Z,1.33
2023-01-11T07:16:53.530Z,1.33
2023-01-11T07:17:57.530Z,1.02
2023-01-11T07:18:54.260Z,1.10
2023-01-11T07:19:50.867Z,1.00
2023-01-11T07:20:47.446Z,1.60
2023-01-11T07:21:44.363Z,1.40
2023-01-11T07:22:41.165Z,1.20
2023-01-11T07:23:37.884Z,1.77
2023-01-11T07:24:34.567Z,1.10
2023-01-11T07:25:31.226Z,1.30
2023-01-11T07:26:28.363Z,1.40
2023-01-11T07:27:25.120Z,1.27
2023-01-11T07:28:21.795Z,1.00
2023-01-11T07:29:18.598Z,1.20
2023-01-11T07:30:15.449Z,1.30
2023-01-11T07:31:12.106Z,1.50
2023-01-11T07:32:10.713Z,1.60
2023-01-11T07:33:07.650Z,1.60
2023-01-11T07:34:06.760Z,1.17
2023-01-11T07:35:03.627Z,1.53
2023-01-11T07:36:00.877Z,1.97
2023-01-11T07:36:57.747Z,1.40
2023-01-11T07:37:54.417Z,2.37
2023-01-11T07:38:51.146Z,1.90
2023-01-11T07:39:47.884Z,2.20
2023-01-11T07:40:44.604Z,2.25
2023-01-11T07:41:59.779Z,2.50
2023-01-11T07:43:11.559Z,3.00
2023-01-11T07:44:08.140Z,2.83
2023-01-11T07:45:05.528Z,3.50
2023-01-11T07:46:02.301Z,2.92
2023-01-11T07:47:01.474Z,3.10
2023-01-11T07:47:58.253Z,3.07
2023-01-11T07:48:54.958Z,3.42
2023-01-11T07:49:51.658Z,3.40
2023-01-11T07:50:48.787Z,2.80
2023-01-11T07:51:45.763Z,3.10
2023-01-11T07:52:48.829Z,3.53
2023-01-11T07:53:45.526Z,3.72
2023-01-11T07:54:42.210Z,3.92
2023-01-11T07:55:39.882Z,4.88
2023-01-11T07:56:36.647Z,5.07
2023-01-11T07:57:37.511Z,3.60
2023-01-11T07:58:35.535Z,5.07
2023-01-11T07:59:32.757Z,5.17
2023-01-11T08:00:30.221Z,5.07
2023-01-11T08:01:26.839Z,4.57
2023-01-11T08:02:23.817Z,5.37
2023-01-11T08:03:20.895Z,6.87
2023-01-11T08:04:17.794Z,7.23
2023-01-11T08:05:14.633Z,7.17
2023-01-11T08:06:11.291Z,7.93
2023-01-11T08:07:07.977Z,7.87
2023-01-11T08:08:05.294Z,7.40
2023-01-11T08:09:01.979Z,7.70
2023-01-11T08:09:58.728Z,7.50
2023-01-11T08:11:16.565Z,7.87
2023-01-11T08:12:39.489Z,9.27
2023-01-11T08:13:54.611Z,7.97
2023-01-11T08:14:51.352Z,9.10
2023-01-11T08:15:48.228Z,8.67
2023-01-11T08:16:44.907Z,8.23
2023-01-11T08:17:41.657Z,9.18
2023-01-11T08:18:38.474Z,8.38
2023-01-11T08:19:35.211Z,9.10
2023-01-11T08:20:32.037Z,8.43
2023-01-11T08:21:28.855Z,8.23
2023-01-11T08:22:25.545Z,8.18
2023-01-11T08:23:22.344Z,9.70
2023-01-11T08:24:19.168Z,8.35
2023-01-11T08:25:16.367Z,9.27
2023-01-11T08:26:17.187Z,8.27
2023-01-11T08:27:16.569Z,8.20
2023-01-11T08:28:13.468Z,8.40
2023-01-11T08:29:10.229Z,8.38
2023-01-11T08:30:07.615Z,8.75
2023-01-11T08:31:10.526Z,8.80
2023-01-11T08:32:18.017Z,9.02
2023-01-11T08:33:17.985Z,9.45
2023-01-11T08:34:15.111Z,8.95
2023-01-11T08:35:12.518Z,9.05
2023-01-11T08:36:10.971Z,9.10
2023-01-11T08:37:20.503Z,9.57
2023-01-11T08:38:20.494Z,8.82
2023-01-11T08:39:20.081Z,9.60
2023-01-11T08:40:17.514Z,8.82
2023-01-11T08:41:14.992Z,9.93
2023-01-11T08:42:11.934Z,11.32
2023-01-11T08:43:08.644Z,10.27
2023-01-11T08:44:05.879Z,11.30
2023-01-11T08:45:02.765Z,11.10
2023-01-11T08:45:59.631Z,9.00
2023-01-11T08:46:56.404Z,9.73
2023-01-11T08:47:53.360Z,9.13
2023-01-11T08:48:50.287Z,9.73
2023-01-11T08:49:47.236Z,9.77
2023-01-11T08:50:46.921Z,9.90
2023-01-11T08:51:43.614Z,10.00
2023-01-11T08:52:40.819Z,9.30
2023-01-11T08:53:37.944Z,9.53
2023-01-11T08:54:34.667Z,9.55
2023-01-11T08:55:31.388Z,9.57
2023-01-11T08:56:28.435Z,9.27
2023-01-11T08:57:25.206Z,9.20
2023-01-11T08:58:22.153Z,9.77
2023-01-11T08:59:20.151Z,9.97
2023-01-11T09:00:17.505Z,9.27
2023-01-11T09:01:14.479Z,8.67
2023-01-11T09:02:12.184Z,9.30
2023-01-11T09:03:11.071Z,9.20
2023-01-11T09:04:23.122Z,9.47
2023-01-11T09:05:20.893Z,8.73
2023-01-11T09:06:19.959Z,9.93
2023-01-11T09:07:16.946Z,9.93
2023-01-11T09:08:13.849Z,9.02
2023-01-11T09:09:10.568Z,9.87
2023-01-11T09:10:07.694Z,10.88
2023-01-11T09:11:24.544Z,9.82
2023-01-11T09:12:23.761Z,10.32
2023-01-11T09:13:20.462Z,9.60
2023-01-11T09:14:17.203Z,9.82
2023-01-11T09:15:14.107Z,10.23
2023-01-11T09:16:10.897Z,9.57
2023-01-11T09:17:07.671Z,10.20
2023-01-11T09:18:05.138Z,10.18
2023-01-11T09:19:01.866Z,10.40
2023-01-11T09:19:58.582Z,9.40
2023-01-11T09:20:55.404Z,9.95
2023-01-11T09:21:52.309Z,9.93
2023-01-11T09:22:52.673Z,10.40
2023-01-11T09:23:49.737Z,9.30
2023-01-11T09:24:46.429Z,9.10
2023-01-11T09:25:43.034Z,9.50
2023-01-11T09:26:41.464Z,9.65
2023-01-11T09:27:38.473Z,10.63
2023-01-11T09:28:35.359Z,10.20
2023-01-11T09:29:32.561Z,9.50
2023-01-11T09:30:29.553Z,11.10
2023-01-11T09:31:26.298Z,10.52
2023-01-11T09:32:23.278Z,9.27
2023-01-11T09:33:20.058Z,10.82
2023-01-11T09:34:16.843Z,9.50
2023-01-11T09:35:17.040Z,10.77
2023-01-11T09:36:15.095Z,9.00
2023-01-11T09:37:11.978Z,8.60
2023-01-11T09:38:08.702Z,8.70
2023-01-11T09:39:08.400Z,8.68
2023-01-11T09:40:06.057Z,8.48
2023-01-11T09:41:24.238Z,8.02
2023-01-11T09:42:35.839Z,7.45
2023-01-11T09:43:32.613Z,8.30
2023-01-11T09:44:29.889Z,8.98
2023-01-11T09:45:35.317Z,8.18
2023-01-11T09:46:32.463Z,8.13
2023-01-11T09:47:49.391Z,7.35
2023-01-11T09:48:53.574Z,8.00
2023-01-11T09:49:56.251Z,7.80
2023-01-11T09:50:52.985Z,6.80
2023-01-11T09:51:50.781Z,8.03
2023-01-11T09:52:54.621Z,6.82
2023-01-11T09:53:52.436Z,7.32
2023-01-11T09:54:49.140Z,7.07
2023-01-11T09:55:46.946Z,6.63
2023-01-11T09:56:50.000Z,6.80
2023-01-11T09:57:56.027Z,6.40
2023-01-11T09:59:17.796Z,6.63
2023-01-11T10:00:16.788Z,6.70
2023-01-11T10:01:42.003Z,6.10
2023-01-11T10:03:05.183Z,5.85
2023-01-11T10:04:28.640Z,6.13
2023-01-11T10:05:55.273Z,5.60
2023-01-11T10:07:06.433Z,5.32
2023-01-11T10:18:22.463Z,4.88
2023-01-11T10:18:38.662Z,4.50
2023-01-11T10:18:38.881Z,4.88
2023-01-11T10:19:12.263Z,4.60
2023-01-11T10:20:38.083Z,4.03
2023-01-11T10:22:00.581Z,4.25
2023-01-11T10:23:25.667Z,4.30
2023-01-11T10:24:29.116Z,4.25
2023-01-11T10:25:33.806Z,4.90
2023-01-11T10:26:37.383Z,4.60
2023-01-11T10:27:37.851Z,3.93
2023-01-11T10:28:43.227Z,4.00
2023-01-11T10:29:57.824Z,5.00
2023-01-11T10:30:58.416Z,4.45
2023-01-11T10:32:19.747Z,4.78
2023-01-11T10:33:37.913Z,4.45
2023-01-11T10:34:56.299Z,3.87
2023-01-11T10:36:51.925Z,4.10
2023-01-11T10:37:54.274Z,4.60
2023-01-11T10:39:31.763Z,4.65
2023-01-11T10:40:30.455Z,4.25
2023-01-11T10:41:38.796Z,3.83
2023-01-11T10:42:45.066Z,4.18
2023-01-11T10:43:44.160Z,4.57
2023-01-11T10:45:02.698Z,4.22
2023-01-11T10:46:01.026Z,3.88
2023-01-11T10:46:57.746Z,3.72
2023-01-11T10:48:03.165Z,3.72
2023-01-11T10:49:10.303Z,4.40
2023-01-11T10:50:30.196Z,4.00
2023-01-11T10:51:32.389Z,4.07
2023-01-11T10:52:41.507Z,3.80
2023-01-11T10:53:53.532Z,4.70
2023-01-11T10:54:54.888Z,4.03
2023-01-11T10:55:57.950Z,4.32
2023-01-11T10:57:23.015Z,4.30
2023-01-11T10:58:29.417Z,3.95
2023-01-11T10:59:35.351Z,4.22
2023-01-11T11:00:39.910Z,3.75
2023-01-11T11:01:57.264Z,3.97
2023-01-11T11:03:15.638Z,4.43
2023-01-11T11:04:33.962Z,4.07
2023-01-11T11:05:48.160Z,4.13
2023-01-11T11:07:12.774Z,4.63
2023-01-11T11:08:14.919Z,4.33
2023-01-11T11:09:23.705Z,4.00
2023-01-11T11:10:28.437Z,3.90
2023-01-11T11:11:38.406Z,4.00
2023-01-11T11:12:36.527Z,3.73
2023-01-11T11:13:54.764Z,3.75
2023-01-11T11:14:52.593Z,3.70
2023-01-11T11:15:55.636Z,4.13
2023-01-11T11:17:13.945Z,4.23
2023-01-11T11:18:10.541Z,4.13
2023-01-11T11:19:08.244Z,3.80
2023-01-11T11:20:15.733Z,4.20
2023-01-11T11:21:21.436Z,4.03
2023-01-11T11:22:18.844Z,3.77
2023-01-11T11:23:17.332Z,3.70
2023-01-11T11:24:23.089Z,4.10
2023-01-11T11:25:27.580Z,4.20
2023-01-11T11:26:26.224Z,3.97
2023-01-11T11:27:59.877Z,3.67
2023-01-11T11:29:05.323Z,3.43
2023-01-11T11:30:02.124Z,3.63
2023-01-11T11:31:03.339Z,3.57
2023-01-11T11:32:00.973Z,3.70
2023-01-11T11:33:02.200Z,3.90
2023-01-11T11:34:06.939Z,3.83
2023-01-11T11:35:04.158Z,3.67
2023-01-11T11:36:11.376Z,3.57
2023-01-11T11:37:09.659Z,4.13
2023-01-11T11:38:06.872Z,4.00
2023-01-11T11:39:19.602Z,4.00
2023-01-11T11:40:31.580Z,3.97
2023-01-11T11:41:28.198Z,3.40
2023-01-11T11:42:25.431Z,4.07
2023-01-11T11:43:26.702Z,3.30
2023-01-11T11:44:26.965Z,3.30
2023-01-11T11:45:23.676Z,3.80
2023-01-11T11:46:26.617Z,4.30
2023-01-11T11:47:23.359Z,4.00
2023-01-11T11:48:20.105Z,3.70
2023-01-11T11:49:17.296Z,3.70
2023-01-11T11:50:37.083Z,3.83
2023-01-11T11:51:36.828Z,3.83
2023-01-11T11:52:33.613Z,3.50
2023-01-11T11:53:34.976Z,3.43
2023-01-11T11:54:41.114Z,3.53
2023-01-11T11:55:37.773Z,3.53
2023-01-11T11:56:34.937Z,3.70
2023-01-11T11:57:35.293Z,3.70
2023-01-11T11:58:32.257Z,3.83
2023-01-11T11:59:29.914Z,4.03
2023-01-11T12:00:31.867Z,3.63
2023-01-11T12:01:35.053Z,3.93
2023-01-11T12:02:32.348Z,3.07
2023-01-11T12:03:30.620Z,4.03
2023-01-11T12:04:40.941Z,4.20
2023-01-11T12:05:37.747Z,3.90
2023-01-11T12:06:34.576Z,4.17
2023-01-11T12:07:40.403Z,4.37
2023-01-11T12:08:42.941Z,3.23
2023-01-11T12:09:40.024Z,3.63
2023-01-11T12:10:36.994Z,4.37
2023-01-11T12:11:35.583Z,3.33
2023-01-11T12:12:32.695Z,3.90
2023-01-11T12:13:39.167Z,3.93
2023-01-11T12:14:36.082Z,3.70
2023-01-11T12:15:33.777Z,4.27
2023-01-11T12:16:34.011Z,3.80
2023-01-11T12:17:31.001Z,3.80
2023-01-11T12:18:37.162Z,4.30
2023-01-11T12:19:40.628Z,3.70
2023-01-11T12:20:40.284Z,3.70
2023-01-11T12:21:37.106Z,3.73
2023-01-11T12:22:34.149Z,3.73
2023-01-11T12:23:30.790Z,3.47
2023-01-11T12:24:28.293Z,4.10
2023-01-11T12:25:25.343Z,3.60
2023-01-11T12:26:28.906Z,4.00
2023-01-11T12:27:35.448Z,3.40
2023-01-11T12:28:46.970Z,4.37
2023-01-11T12:30:05.345Z,3.07
2023-01-11T12:31:17.210Z,3.83
2023-01-11T12:32:30.601Z,3.73
2023-01-11T12:33:45.296Z,3.27
2023-01-11T12:35:00.415Z,3.50
2023-01-11T12:36:20.062Z,3.73
2023-01-11T12:37:32.829Z,3.93
2023-01-11T12:39:06.684Z,3.27
2023-01-11T12:40:41.187Z,3.83
2023-01-11T12:41:48.336Z,3.90
2023-01-11T12:42:57.567Z,4.20
2023-01-11T12:44:04.843Z,3.73
2023-01-11T12:45:39.239Z,3.93
2023-01-11T12:47:12.754Z,4.03
2023-01-11T12:48:27.700Z,3.60
2023-01-11T12:49:33.422Z,3.70
2023-01-11T12:51:05.243Z,3.93
2023-01-11T12:52:20.253Z,4.53
2023-01-11T12:53:42.231Z,3.93
2023-01-11T12:54:51.484Z,3.80
2023-01-11T12:56:07.976Z,4.00
2023-01-11T12:57:19.525Z,3.58
2023-01-11T12:58:28.860Z,3.50
2023-01-11T12:59:44.249Z,3.90
2023-01-11T13:00:56.220Z,4.10
2023-01-11T13:02:36.795Z,4.32
2023-01-11T13:03:46.587Z,3.28
2023-01-11T13:04:58.775Z,4.35
2023-01-11T13:06:17.898Z,4.38
2023-01-11T13:07:47.427Z,4.10
2023-01-11T13:08:48.163Z,4.27
2023-01-11T13:09:48.402Z,3.93
2023-01-11T13:11:12.780Z,3.45
2023-01-11T13:12:12.082Z,3.80
2023-01-11T13:13:44.191Z,3.85
2023-01-11T13:15:02.600Z,4.30
2023-01-11T13:16:03.743Z,3.63
2023-01-11T13:17:20.717Z,4.40
2023-01-11T13:18:44.143Z,4.60
2023-01-11T13:19:53.234Z,4.00
2023-01-11T13:21:08.032Z,4.00
2023-01-11T13:22:06.134Z,4.27
2023-01-11T13:23:08.348Z,4.10
2023-01-11T13:24:29.062Z,4.53
2023-01-11T13:25:31.360Z,3.77
2023-01-11T13:26:31.138Z,4.50
2023-01-11T13:27:27.773Z,4.07
2023-01-11T13:28:33.953Z,4.83
2023-01-11T13:29:41.491Z,4.93
2023-01-11T13:30:38.352Z,3.60
2023-01-11T13:31:35.248Z,4.60
2023-01-11T13:32:36.455Z,4.83
2023-01-11T13:33:34.105Z,4.67
2023-01-11T13:34:53.561Z,4.75
2023-01-11T13:36:00.799Z,4.37
2023-01-11T13:37:07.703Z,5.03
2023-01-11T13:38:13.627Z,4.55
2023-01-11T13:39:28.606Z,3.83
2023-01-11T13:40:27.917Z,4.70
2023-01-11T13:41:28.083Z,3.90
2023-01-11T13:42:36.942Z,3.78
2023-01-11T13:43:39.036Z,4.53
2023-01-11T13:44:42.725Z,4.00
2023-01-11T13:45:43.643Z,4.43
2023-01-11T13:46:55.111Z,5.03
2023-01-11T13:47:55.750Z,4.07
2023-01-11T13:48:56.368Z,4.13
2023-01-11T13:50:25.444Z,4.20